Main page
METAR-TAF:

METAR-TAF

Airports :

Hohenfels, Germany

latitude: 49-13N, longitude: 011-50E, elevation: 442 m

Current weather observation

The report was made 1 hour and 9 minutes ago, at 07:56 UTC
Calm wind
Temperature 4°C
Humidity 18%
Pressure 1025 hPa
Visibility 10 km or more
Clear sky

METAR: ETIH 150756Z AUTO 00000KT 9999 CLR 04/M18 A3028 RMK AO2 SLP276 T00361179

Time: 11:05 (09:05 UTC)


TAF: missing

Weather observations and forecasts of more than 4000 airports (METAR and TAF reports).

The available stations are represented by yellow and red dots on the map.

Hover mouse over dot to see the name of the station.

Then click to see weather observations and forecasts.

To change the map : click on the green buttons with a black cross to zoom in, on the green button with a dash to zoom out, or on the green arrows for adjacent maps.


METAR-TAF: